Jacky L O'neal — WDG3892 — position and weather

sailwx.info

Track history (hours):
 
Tides and Currents Weather Stations Pressure Air Temp Water Temp Dewpoint Dewpoint Depression Visibility Wind Speed Wind Dir Waves Ship Positions

Jacky L O'neal

Owner: American Commercial Lines LLC, Jeffersonville, IN. More information available from US FCC via Universal Licensing System and Coast Guard Vessel Documentation Center.

Last reported at 2017-Mar-25 07:23 UTC. Time now 2017-Mar-27 18:24 UTC.
Position N 31°58' W 091°11'.

Length 55 m; draft 2.9 m.

Type: Tow > 200 m length. MMSI: 367530760.

Date/timePositionNaut miles runAvg speedWind from/ knotsBaromVisibWave heightAir tempDewpointWater temp
2017-Mar-25 07:23N 31°58' W 091°11'6 7.5
2017-Mar-25 06:33N 32°01' W 091°05'7 7.2
2017-Mar-25 05:33N 32°07' W 091°06'5 4.6
2017-Mar-25 04:33N 32°07' W 091°01'8 7.8
2017-Mar-25 03:33N 32°15' W 090°59'6 6.4
2017-Mar-25 02:33N 32°21' W 090°55'6 5.5
2017-Mar-25 01:33N 32°25' W 090°60'7 7.5
2017-Mar-25 00:33N 32°29' W 091°07'7 6.8
2017-Mar-24 23:33N 32°36' W 091°08'  
2017-Mar-17 11:33N 32°41' W 091°06'4 3.9
2017-Mar-17 10:32N 32°38' W 091°09'3 3.0
2017-Mar-17 09:33N 32°35' W 091°08'3 2.8
2017-Mar-17 08:33N 32°33' W 091°06'2 2.0
2017-Mar-17 07:33N 32°31' W 091°07'3 3.3
2017-Mar-17 06:33N 32°28' W 091°06'4 3.5
2017-Mar-17 05:33N 32°26' W 091°02'3 3.2
2017-Mar-17 04:33N 32°23' W 090°60'2 2.1
2017-Mar-17 03:33N 32°21' W 090°60'4 3.8
2017-Mar-17 02:33N 32°21' W 090°55'3 2.5
2017-Mar-17 01:33N 32°18' W 090°55'4 3.8
2017-Mar-17 00:33N 32°15' W 090°58'4 4.0
2017-Mar-16 23:33N 32°11' W 090°60'4 3.9
2017-Mar-16 22:33N 32°08' W 091°01'4 4.2
2017-Mar-16 21:33N 32°08' W 091°06'4 3.8
2017-Mar-16 20:27N 32°04' W 091°04'4 4.3
2017-Mar-16 19:33N 32°01' W 091°05'6 3.8
2017-Mar-16 18:06N 31°58' W 091°11'  
Track history (hours):
 
Tides and Currents Weather Stations Pressure Air Temp Water Temp Dewpoint Dewpoint Depression Visibility Wind Speed Wind Dir Waves Ship Positions

Jacky L O'neal

Owner: American Commercial Lines LLC, Jeffersonville, IN. More information available from US FCC via Universal Licensing System and Coast Guard Vessel Documentation Center.

Last reported at 2017-Mar-25 07:23 UTC. Time now 2017-Mar-27 18:24 UTC.
Position N 31°58' W 091°11'.

Length 55 m; draft 2.9 m.

Type: Tow > 200 m length. MMSI: 367530760.

Date/timePositionNaut miles runAvg speedWind from/ knotsBaromVisibWave heightAir tempDewpointWater temp
2017-Mar-25 07:23N 31°58' W 091°11'6 7.5
2017-Mar-25 06:33N 32°01' W 091°05'7 7.2
2017-Mar-25 05:33N 32°07' W 091°06'5 4.6
2017-Mar-25 04:33N 32°07' W 091°01'8 7.8
2017-Mar-25 03:33N 32°15' W 090°59'6 6.4
2017-Mar-25 02:33N 32°21' W 090°55'6 5.5
2017-Mar-25 01:33N 32°25' W 090°60'7 7.5
2017-Mar-25 00:33N 32°29' W 091°07'7 6.8
2017-Mar-24 23:33N 32°36' W 091°08'  
2017-Mar-17 11:33N 32°41' W 091°06'4 3.9
2017-Mar-17 10:32N 32°38' W 091°09'3 3.0
2017-Mar-17 09:33N 32°35' W 091°08'3 2.8
2017-Mar-17 08:33N 32°33' W 091°06'2 2.0
2017-Mar-17 07:33N 32°31' W 091°07'3 3.3
2017-Mar-17 06:33N 32°28' W 091°06'4 3.5
2017-Mar-17 05:33N 32°26' W 091°02'3 3.2
2017-Mar-17 04:33N 32°23' W 090°60'2 2.1
2017-Mar-17 03:33N 32°21' W 090°60'4 3.8
2017-Mar-17 02:33N 32°21' W 090°55'3 2.5
2017-Mar-17 01:33N 32°18' W 090°55'4 3.8
2017-Mar-17 00:33N 32°15' W 090°58'4 4.0
2017-Mar-16 23:33N 32°11' W 090°60'4 3.9
2017-Mar-16 22:33N 32°08' W 091°01'4 4.2
2017-Mar-16 21:33N 32°08' W 091°06'4 3.8
2017-Mar-16 20:27N 32°04' W 091°04'4 4.3
2017-Mar-16 19:33N 32°01' W 091°05'6 3.8
2017-Mar-16 18:06N 31°58' W 091°11'  

Dump ship's entire track history